ITY11P LIRF-LIMC
Flight info
| Callsign | ITY11P |
|---|---|
| Flight time | 1h 6m |
| Altitude | 38000 |
| Route | NEMBO DCT UPDIN DCT SPEZI DCT IDONA DCT MEBUR |
| Aircraft | A320/M-SDE3FGHIRWY/LB1 |
Departure
| Time | 2026-02-17 12:35 |
|---|---|
| Airport | Rome–Fiumicino Leonardo da Vinci International Airport (LIRF) |
Arrival
| Time | 2026-02-17 13:41 |
|---|---|
| Airport | Milan Malpensa International Airport (LIMC) |
| Time | Latitude | Longitude | Altitude | Speed | Heading |
|---|---|---|---|---|---|
| 2026-02-17 11:49 | 41.79820 | 12.26655 | 14 ft | 0 kts | 250° |
| 2026-02-17 12:26 | 41.79820 | 12.26654 | 14 ft | 0 kts | 250° |
| 2026-02-17 12:28 | 41.79815 | 12.26622 | 14 ft | 7 kts | 277° |
| 2026-02-17 12:28 | 41.79877 | 12.26565 | 14 ft | 13 kts | 340° |
| 2026-02-17 12:28 | 41.79971 | 12.26519 | 14 ft | 15 kts | 340° |
| 2026-02-17 12:28 | 41.80076 | 12.26468 | 14 ft | 17 kts | 340° |
| 2026-02-17 12:29 | 41.80191 | 12.26415 | 14 ft | 18 kts | 349° |
| 2026-02-17 12:29 | 41.80291 | 12.26330 | 16 ft | 18 kts | 297° |
| 2026-02-17 12:29 | 41.80319 | 12.26253 | 14 ft | 5 kts | 296° |
| 2026-02-17 12:29 | 41.80339 | 12.26206 | 16 ft | 11 kts | 307° |
| 2026-02-17 12:30 | 41.80419 | 12.26165 | 16 ft | 14 kts | 6° |
| 2026-02-17 12:30 | 41.80510 | 12.26209 | 18 ft | 14 kts | 43° |
| 2026-02-17 12:30 | 41.80553 | 12.26337 | 17 ft | 15 kts | 69° |
| 2026-02-17 12:31 | 41.80625 | 12.26590 | 16 ft | 14 kts | 71° |
| 2026-02-17 12:31 | 41.80657 | 12.26714 | 15 ft | 14 kts | 70° |
| 2026-02-17 12:31 | 41.80701 | 12.26874 | 14 ft | 18 kts | 70° |
| 2026-02-17 12:31 | 41.80745 | 12.27013 | 14 ft | 15 kts | 51° |
| 2026-02-17 12:32 | 41.80840 | 12.27026 | 13 ft | 16 kts | 340° |
| 2026-02-17 12:32 | 41.80922 | 12.26987 | 13 ft | 12 kts | 340° |
| 2026-02-17 12:32 | 41.80955 | 12.26916 | 13 ft | 2 kts | 245° |
| 2026-02-17 12:32 | 41.80954 | 12.26912 | 13 ft | 0 kts | 249° |
| 2026-02-17 12:34 | 41.80944 | 12.26879 | 15 ft | 21 kts | 250° |
| 2026-02-17 12:34 | 41.80803 | 12.26360 | 19 ft | 93 kts | 249° |
| 2026-02-17 12:35 | 41.80162 | 12.23958 | 566 ft | 154 kts | 255° |
| 2026-02-17 12:35 | 41.79786 | 12.22615 | 1303 ft | 155 kts | 255° |
| 2026-02-17 12:35 | 41.79395 | 12.21189 | 1697 ft | 173 kts | 262° |
| 2026-02-17 12:36 | 41.79251 | 12.17597 | 2411 ft | 217 kts | 272° |
| 2026-02-17 12:36 | 41.79202 | 12.15460 | 2903 ft | 240 kts | 272° |
| 2026-02-17 12:36 | 41.79142 | 12.13169 | 3695 ft | 250 kts | 272° |
| 2026-02-17 12:36 | 41.79075 | 12.10814 | 4588 ft | 256 kts | 272° |
| 2026-02-17 12:37 | 41.79018 | 12.08400 | 5487 ft | 261 kts | 273° |
| 2026-02-17 12:37 | 41.79001 | 12.05946 | 6406 ft | 265 kts | 274° |
| 2026-02-17 12:37 | 41.79001 | 12.03484 | 7298 ft | 268 kts | 275° |
| 2026-02-17 12:37 | 41.79006 | 12.00988 | 8256 ft | 269 kts | 276° |
| 2026-02-17 12:38 | 41.79373 | 11.98569 | 9167 ft | 264 kts | 297° |
| 2026-02-17 12:38 | 41.80244 | 11.96407 | 10057 ft | 266 kts | 302° |
| 2026-02-17 12:38 | 41.81198 | 11.94160 | 10387 ft | 289 kts | 302° |
| 2026-02-17 12:39 | 41.83275 | 11.89263 | 11609 ft | 308 kts | 302° |
| 2026-02-17 12:39 | 41.84330 | 11.86747 | 12468 ft | 310 kts | 302° |
| 2026-02-17 12:39 | 41.85391 | 11.84208 | 13325 ft | 312 kts | 302° |
| 2026-02-17 12:39 | 41.86453 | 11.81661 | 14112 ft | 313 kts | 302° |
| 2026-02-17 12:40 | 41.87519 | 11.79100 | 14864 ft | 315 kts | 303° |
| 2026-02-17 12:40 | 41.88586 | 11.76525 | 15613 ft | 316 kts | 303° |
| 2026-02-17 12:40 | 41.89659 | 11.73938 | 16366 ft | 318 kts | 303° |
| 2026-02-17 12:40 | 41.90738 | 11.71340 | 17108 ft | 319 kts | 303° |
| 2026-02-17 12:41 | 41.91813 | 11.68761 | 17838 ft | 321 kts | 304° |
| 2026-02-17 12:41 | 41.92904 | 11.66148 | 18501 ft | 321 kts | 304° |
| 2026-02-17 12:41 | 41.93991 | 11.63532 | 19265 ft | 318 kts | 304° |
| 2026-02-17 12:41 | 41.95063 | 11.60946 | 20065 ft | 315 kts | 305° |
| 2026-02-17 12:42 | 41.96119 | 11.58394 | 20888 ft | 311 kts | 305° |
| 2026-02-17 12:42 | 41.97163 | 11.55864 | 21699 ft | 308 kts | 306° |
| 2026-02-17 12:42 | 41.98198 | 11.53358 | 22488 ft | 304 kts | 306° |
| 2026-02-17 12:43 | 42.00233 | 11.48420 | 23879 ft | 299 kts | 307° |
| 2026-02-17 12:43 | 42.01229 | 11.46009 | 24391 ft | 299 kts | 307° |
| 2026-02-17 12:43 | 42.02242 | 11.43562 | 24856 ft | 300 kts | 307° |
| 2026-02-17 12:43 | 42.03260 | 11.41104 | 25292 ft | 301 kts | 307° |
| 2026-02-17 12:44 | 42.04283 | 11.38627 | 25718 ft | 303 kts | 308° |
| 2026-02-17 12:44 | 42.05305 | 11.36146 | 26149 ft | 304 kts | 308° |
| 2026-02-17 12:44 | 42.06335 | 11.33638 | 26561 ft | 306 kts | 308° |
| 2026-02-17 12:44 | 42.07368 | 11.31121 | 26956 ft | 308 kts | 308° |
| 2026-02-17 12:45 | 42.08409 | 11.28591 | 27304 ft | 310 kts | 308° |
| 2026-02-17 12:45 | 42.09454 | 11.26044 | 27686 ft | 312 kts | 308° |
| 2026-02-17 12:45 | 42.10505 | 11.23480 | 28062 ft | 313 kts | 308° |
| 2026-02-17 12:45 | 42.11549 | 11.20936 | 28428 ft | 315 kts | 308° |
| 2026-02-17 12:46 | 42.12613 | 11.18341 | 28785 ft | 317 kts | 308° |
| 2026-02-17 12:46 | 42.13681 | 11.15729 | 29133 ft | 319 kts | 308° |
| 2026-02-17 12:46 | 42.14755 | 11.13093 | 29471 ft | 321 kts | 308° |
| 2026-02-17 12:47 | 42.16899 | 11.07811 | 29840 ft | 315 kts | 309° |
| 2026-02-17 12:47 | 42.17906 | 11.05297 | 29845 ft | 303 kts | 309° |
| 2026-02-17 12:47 | 42.18919 | 11.02783 | 29846 ft | 299 kts | 309° |
| 2026-02-17 12:47 | 42.19578 | 11.01159 | 29849 ft | 298 kts | 309° |
| 2026-02-17 12:48 | 42.20900 | 10.97919 | 29848 ft | 297 kts | 309° |
| 2026-02-17 12:48 | 42.21899 | 10.95478 | 29849 ft | 297 kts | 309° |
| 2026-02-17 12:48 | 42.22561 | 10.93859 | 29849 ft | 297 kts | 309° |
| 2026-02-17 12:48 | 42.23557 | 10.91415 | 29849 ft | 297 kts | 309° |
| 2026-02-17 12:49 | 42.24550 | 10.88961 | 29849 ft | 297 kts | 309° |
| 2026-02-17 12:49 | 42.25537 | 10.86515 | 29857 ft | 297 kts | 309° |
| 2026-02-17 12:49 | 42.26850 | 10.83265 | 29850 ft | 297 kts | 309° |
| 2026-02-17 12:49 | 42.27519 | 10.81608 | 29849 ft | 297 kts | 309° |
| 2026-02-17 12:50 | 42.28554 | 10.79220 | 29847 ft | 291 kts | 315° |
| 2026-02-17 12:50 | 42.29904 | 10.77256 | 29845 ft | 282 kts | 324° |
| 2026-02-17 12:50 | 42.31512 | 10.75806 | 29844 ft | 280 kts | 330° |
| 2026-02-17 12:51 | 42.34880 | 10.73161 | 29842 ft | 280 kts | 330° |
| 2026-02-17 12:51 | 42.36565 | 10.71833 | 29845 ft | 280 kts | 330° |
| 2026-02-17 12:51 | 42.38254 | 10.70502 | 29844 ft | 280 kts | 330° |
| 2026-02-17 12:51 | 42.39935 | 10.69175 | 29844 ft | 280 kts | 330° |
| 2026-02-17 12:52 | 42.41619 | 10.67843 | 29839 ft | 280 kts | 330° |
| 2026-02-17 12:52 | 42.43301 | 10.66507 | 29839 ft | 280 kts | 330° |
| 2026-02-17 12:52 | 42.44988 | 10.65168 | 29839 ft | 280 kts | 330° |
| 2026-02-17 12:52 | 42.46673 | 10.63835 | 29839 ft | 280 kts | 330° |
| 2026-02-17 12:53 | 42.48358 | 10.62503 | 29839 ft | 280 kts | 330° |
| 2026-02-17 12:53 | 42.50020 | 10.61187 | 29839 ft | 280 kts | 330° |
| 2026-02-17 12:53 | 42.51704 | 10.59853 | 29839 ft | 280 kts | 330° |
| 2026-02-17 12:53 | 42.53388 | 10.58518 | 29865 ft | 280 kts | 330° |
| 2026-02-17 12:54 | 42.55070 | 10.57180 | 29778 ft | 280 kts | 330° |
| 2026-02-17 12:54 | 42.56761 | 10.55831 | 29837 ft | 284 kts | 330° |
| 2026-02-17 12:54 | 42.58470 | 10.54468 | 29841 ft | 285 kts | 330° |
| 2026-02-17 12:55 | 42.61896 | 10.51745 | 29836 ft | 285 kts | 330° |
| 2026-02-17 12:55 | 42.63610 | 10.50380 | 29840 ft | 285 kts | 330° |
| 2026-02-17 12:55 | 42.65324 | 10.49015 | 29839 ft | 285 kts | 330° |
| 2026-02-17 12:55 | 42.67037 | 10.47649 | 29838 ft | 285 kts | 330° |
| 2026-02-17 12:56 | 42.68731 | 10.46297 | 29832 ft | 285 kts | 330° |
| 2026-02-17 12:56 | 42.70443 | 10.44927 | 29834 ft | 285 kts | 330° |
| 2026-02-17 12:56 | 42.72154 | 10.43557 | 29829 ft | 285 kts | 330° |
| 2026-02-17 12:56 | 42.73862 | 10.42191 | 29854 ft | 285 kts | 330° |
| 2026-02-17 12:57 | 42.75574 | 10.40818 | 29903 ft | 286 kts | 330° |
| 2026-02-17 12:57 | 42.77288 | 10.39441 | 29904 ft | 285 kts | 330° |
| 2026-02-17 12:57 | 42.78995 | 10.38072 | 29883 ft | 284 kts | 330° |
| 2026-02-17 12:57 | 42.80702 | 10.36705 | 29880 ft | 285 kts | 330° |
| 2026-02-17 12:58 | 42.82386 | 10.35356 | 29874 ft | 284 kts | 330° |
| 2026-02-17 12:58 | 42.84089 | 10.33986 | 29869 ft | 284 kts | 330° |
| 2026-02-17 12:58 | 42.85794 | 10.32613 | 29865 ft | 284 kts | 330° |
| 2026-02-17 12:59 | 42.89195 | 10.29877 | 29856 ft | 284 kts | 330° |
| 2026-02-17 12:59 | 42.90896 | 10.28510 | 29854 ft | 284 kts | 330° |
| 2026-02-17 12:59 | 42.92597 | 10.27141 | 29857 ft | 284 kts | 330° |
| 2026-02-17 12:59 | 42.94280 | 10.25787 | 29856 ft | 284 kts | 330° |
| 2026-02-17 13:00 | 42.95981 | 10.24416 | 29853 ft | 284 kts | 330° |
| 2026-02-17 13:00 | 42.97686 | 10.23040 | 29870 ft | 284 kts | 330° |
| 2026-02-17 13:00 | 42.99385 | 10.21665 | 29869 ft | 284 kts | 330° |
| 2026-02-17 13:00 | 43.01084 | 10.20293 | 29803 ft | 283 kts | 330° |
| 2026-02-17 13:01 | 43.02788 | 10.18916 | 29836 ft | 286 kts | 329° |
| 2026-02-17 13:01 | 43.04502 | 10.17528 | 29855 ft | 287 kts | 329° |
| 2026-02-17 13:01 | 43.06196 | 10.16153 | 29832 ft | 287 kts | 329° |
| 2026-02-17 13:01 | 43.07914 | 10.14759 | 29839 ft | 287 kts | 329° |
| 2026-02-17 13:02 | 43.09634 | 10.13366 | 29836 ft | 287 kts | 329° |
| 2026-02-17 13:02 | 43.11356 | 10.11970 | 29853 ft | 287 kts | 329° |
| 2026-02-17 13:02 | 43.13074 | 10.10572 | 29853 ft | 287 kts | 329° |
| 2026-02-17 13:03 | 43.16513 | 10.07772 | 29842 ft | 287 kts | 329° |
| 2026-02-17 13:03 | 43.18231 | 10.06372 | 29853 ft | 287 kts | 329° |
| 2026-02-17 13:03 | 43.19950 | 10.04974 | 29859 ft | 287 kts | 329° |
| 2026-02-17 13:03 | 43.21647 | 10.03595 | 29849 ft | 287 kts | 329° |
| 2026-02-17 13:04 | 43.23363 | 10.02197 | 29837 ft | 287 kts | 329° |
| 2026-02-17 13:04 | 43.25085 | 10.00790 | 29836 ft | 287 kts | 329° |
| 2026-02-17 13:04 | 43.26800 | 9.99389 | 29837 ft | 287 kts | 329° |
| 2026-02-17 13:04 | 43.28519 | 9.97986 | 29846 ft | 287 kts | 329° |
| 2026-02-17 13:05 | 43.30238 | 9.96581 | 29846 ft | 287 kts | 329° |
| 2026-02-17 13:05 | 43.31960 | 9.95172 | 29848 ft | 287 kts | 329° |
| 2026-02-17 13:05 | 43.33680 | 9.93767 | 29848 ft | 287 kts | 329° |
| 2026-02-17 13:05 | 43.35399 | 9.92361 | 29846 ft | 287 kts | 329° |
| 2026-02-17 13:06 | 43.37118 | 9.90952 | 29847 ft | 288 kts | 329° |
| 2026-02-17 13:06 | 43.38839 | 9.89547 | 29857 ft | 288 kts | 329° |
| 2026-02-17 13:06 | 43.40577 | 9.88181 | 29869 ft | 288 kts | 330° |
| 2026-02-17 13:07 | 43.44061 | 9.85527 | 29856 ft | 288 kts | 331° |
| 2026-02-17 13:07 | 43.45849 | 9.84267 | 29582 ft | 288 kts | 332° |
| 2026-02-17 13:07 | 43.47643 | 9.83061 | 29220 ft | 287 kts | 332° |
| 2026-02-17 13:07 | 43.49451 | 9.81863 | 28940 ft | 289 kts | 332° |
| 2026-02-17 13:08 | 43.51264 | 9.80660 | 28661 ft | 289 kts | 332° |
| 2026-02-17 13:08 | 43.53076 | 9.79452 | 28388 ft | 288 kts | 332° |
| 2026-02-17 13:08 | 43.54875 | 9.78240 | 28116 ft | 287 kts | 332° |
| 2026-02-17 13:08 | 43.56668 | 9.77022 | 27847 ft | 286 kts | 332° |
| 2026-02-17 13:09 | 43.58426 | 9.75826 | 27577 ft | 285 kts | 332° |
| 2026-02-17 13:09 | 43.60201 | 9.74615 | 27306 ft | 284 kts | 332° |
| 2026-02-17 13:09 | 43.61970 | 9.73407 | 27063 ft | 283 kts | 331° |
| 2026-02-17 13:09 | 43.63737 | 9.72200 | 26806 ft | 283 kts | 331° |
| 2026-02-17 13:10 | 43.65495 | 9.71000 | 26547 ft | 282 kts | 331° |
| 2026-02-17 13:10 | 43.67260 | 9.69793 | 26284 ft | 281 kts | 331° |
| 2026-02-17 13:10 | 43.69013 | 9.68596 | 26035 ft | 280 kts | 331° |
| 2026-02-17 13:11 | 43.72481 | 9.66219 | 25547 ft | 279 kts | 331° |
| 2026-02-17 13:11 | 43.74213 | 9.65032 | 25300 ft | 278 kts | 331° |
| 2026-02-17 13:11 | 43.75949 | 9.63845 | 25063 ft | 277 kts | 331° |
| 2026-02-17 13:11 | 43.77676 | 9.62662 | 24816 ft | 276 kts | 331° |
| 2026-02-17 13:12 | 43.79396 | 9.61477 | 24572 ft | 276 kts | 331° |
| 2026-02-17 13:12 | 43.81112 | 9.60293 | 24340 ft | 275 kts | 331° |
| 2026-02-17 13:12 | 43.82826 | 9.59115 | 24108 ft | 275 kts | 330° |
| 2026-02-17 13:12 | 43.84534 | 9.57943 | 23882 ft | 274 kts | 330° |
| 2026-02-17 13:13 | 43.86221 | 9.56783 | 23649 ft | 274 kts | 330° |
| 2026-02-17 13:13 | 43.87926 | 9.55607 | 23414 ft | 273 kts | 330° |
| 2026-02-17 13:13 | 43.89633 | 9.54431 | 23139 ft | 273 kts | 330° |
| 2026-02-17 13:13 | 43.91337 | 9.53258 | 22863 ft | 273 kts | 330° |
| 2026-02-17 13:14 | 43.93042 | 9.52081 | 22584 ft | 274 kts | 330° |
| 2026-02-17 13:14 | 43.94754 | 9.50897 | 22310 ft | 274 kts | 330° |
| 2026-02-17 13:14 | 43.96466 | 9.49713 | 22034 ft | 275 kts | 331° |
| 2026-02-17 13:15 | 43.99884 | 9.47352 | 21514 ft | 276 kts | 331° |
| 2026-02-17 13:15 | 44.01605 | 9.46164 | 21193 ft | 277 kts | 331° |
| 2026-02-17 13:15 | 44.03340 | 9.44966 | 20927 ft | 278 kts | 331° |
| 2026-02-17 13:15 | 44.05074 | 9.43764 | 20677 ft | 280 kts | 331° |
| 2026-02-17 13:16 | 44.06821 | 9.42551 | 20420 ft | 280 kts | 331° |
| 2026-02-17 13:16 | 44.08571 | 9.41332 | 20159 ft | 281 kts | 331° |
| 2026-02-17 13:16 | 44.10315 | 9.40116 | 19910 ft | 281 kts | 331° |
| 2026-02-17 13:16 | 44.12066 | 9.38896 | 19662 ft | 282 kts | 331° |
| 2026-02-17 13:17 | 44.13820 | 9.37675 | 19424 ft | 282 kts | 331° |
| 2026-02-17 13:17 | 44.15557 | 9.36467 | 19181 ft | 282 kts | 331° |
| 2026-02-17 13:17 | 44.17311 | 9.35245 | 18940 ft | 283 kts | 331° |
| 2026-02-17 13:17 | 44.19075 | 9.34018 | 18697 ft | 283 kts | 332° |
| 2026-02-17 13:18 | 44.20835 | 9.32793 | 18458 ft | 283 kts | 332° |
| 2026-02-17 13:18 | 44.22601 | 9.31560 | 18225 ft | 284 kts | 332° |
| 2026-02-17 13:18 | 44.24370 | 9.30325 | 18002 ft | 284 kts | 332° |
| 2026-02-17 13:19 | 44.27896 | 9.27860 | 17436 ft | 283 kts | 332° |
| 2026-02-17 13:19 | 44.29660 | 9.26624 | 17163 ft | 284 kts | 332° |
| 2026-02-17 13:19 | 44.31426 | 9.25385 | 16891 ft | 284 kts | 332° |
| 2026-02-17 13:19 | 44.33196 | 9.24143 | 16617 ft | 284 kts | 332° |
| 2026-02-17 13:20 | 44.34971 | 9.22899 | 16349 ft | 285 kts | 332° |
| 2026-02-17 13:20 | 44.36739 | 9.21662 | 16092 ft | 284 kts | 332° |
| 2026-02-17 13:20 | 44.38509 | 9.20421 | 15828 ft | 285 kts | 332° |
| 2026-02-17 13:20 | 44.40285 | 9.19172 | 15572 ft | 286 kts | 332° |
| 2026-02-17 13:21 | 44.42048 | 9.17933 | 15315 ft | 287 kts | 332° |
| 2026-02-17 13:21 | 44.43833 | 9.16678 | 15058 ft | 287 kts | 333° |
| 2026-02-17 13:21 | 44.45621 | 9.15420 | 14801 ft | 288 kts | 333° |
| 2026-02-17 13:21 | 44.47406 | 9.14167 | 14553 ft | 288 kts | 333° |
| 2026-02-17 13:22 | 44.49198 | 9.12906 | 14307 ft | 289 kts | 333° |
| 2026-02-17 13:22 | 44.50994 | 9.11639 | 14058 ft | 290 kts | 333° |
| 2026-02-17 13:22 | 44.52795 | 9.10364 | 13815 ft | 290 kts | 333° |
| 2026-02-17 13:23 | 44.56403 | 9.07812 | 13286 ft | 289 kts | 333° |
| 2026-02-17 13:23 | 44.58185 | 9.06550 | 13012 ft | 287 kts | 333° |
| 2026-02-17 13:23 | 44.59963 | 9.05295 | 12732 ft | 286 kts | 333° |
| 2026-02-17 13:23 | 44.61737 | 9.04040 | 12474 ft | 285 kts | 333° |
| 2026-02-17 13:24 | 44.63508 | 9.02781 | 12211 ft | 286 kts | 333° |
| 2026-02-17 13:24 | 44.65279 | 9.01519 | 11954 ft | 285 kts | 333° |
| 2026-02-17 13:24 | 44.67038 | 9.00262 | 11693 ft | 284 kts | 333° |
| 2026-02-17 13:24 | 44.68800 | 8.99006 | 11431 ft | 283 kts | 333° |
| 2026-02-17 13:25 | 44.70537 | 8.97774 | 11177 ft | 283 kts | 333° |
| 2026-02-17 13:25 | 44.72295 | 8.96528 | 10921 ft | 282 kts | 333° |
| 2026-02-17 13:25 | 44.74049 | 8.95279 | 10668 ft | 283 kts | 333° |
| 2026-02-17 13:25 | 44.75786 | 8.94042 | 10400 ft | 275 kts | 333° |
| 2026-02-17 13:26 | 44.77484 | 8.92833 | 10099 ft | 270 kts | 333° |
| 2026-02-17 13:26 | 44.79137 | 8.91657 | 9858 ft | 263 kts | 333° |
| 2026-02-17 13:26 | 44.80736 | 8.90517 | 9712 ft | 260 kts | 333° |
| 2026-02-17 13:27 | 44.83989 | 8.88197 | 9039 ft | 264 kts | 333° |
| 2026-02-17 13:27 | 44.85622 | 8.87030 | 8547 ft | 266 kts | 332° |
| 2026-02-17 13:27 | 44.87274 | 8.85848 | 8159 ft | 264 kts | 332° |
| 2026-02-17 13:27 | 44.88905 | 8.84683 | 7736 ft | 262 kts | 332° |
| 2026-02-17 13:28 | 44.90534 | 8.83518 | 7299 ft | 261 kts | 332° |
| 2026-02-17 13:28 | 44.92152 | 8.82369 | 6878 ft | 260 kts | 334° |
| 2026-02-17 13:28 | 44.93906 | 8.81771 | 6479 ft | 262 kts | 357° |
| 2026-02-17 13:28 | 44.95696 | 8.82285 | 6047 ft | 267 kts | 21° |
| 2026-02-17 13:29 | 44.97343 | 8.83509 | 5521 ft | 271 kts | 25° |
| 2026-02-17 13:29 | 44.98961 | 8.84768 | 5369 ft | 259 kts | 25° |
| 2026-02-17 13:29 | 45.00496 | 8.85978 | 5229 ft | 246 kts | 25° |
| 2026-02-17 13:29 | 45.01954 | 8.87126 | 5122 ft | 233 kts | 25° |
| 2026-02-17 13:30 | 45.03355 | 8.88160 | 5031 ft | 220 kts | 16° |
| 2026-02-17 13:30 | 45.04809 | 8.88584 | 4956 ft | 206 kts | 357° |
| 2026-02-17 13:30 | 45.06182 | 8.88362 | 4912 ft | 193 kts | 345° |
| 2026-02-17 13:31 | 45.08783 | 8.87651 | 4817 ft | 189 kts | 345° |
| 2026-02-17 13:31 | 45.10076 | 8.87301 | 4768 ft | 190 kts | 345° |
| 2026-02-17 13:31 | 45.11449 | 8.86924 | 4723 ft | 207 kts | 345° |
| 2026-02-17 13:31 | 45.12865 | 8.86538 | 4692 ft | 211 kts | 346° |
| 2026-02-17 13:32 | 45.14304 | 8.86149 | 4645 ft | 211 kts | 346° |
| 2026-02-17 13:32 | 45.15748 | 8.85759 | 4591 ft | 211 kts | 345° |
| 2026-02-17 13:32 | 45.17191 | 8.85369 | 4545 ft | 210 kts | 345° |
| 2026-02-17 13:32 | 45.18627 | 8.84981 | 4496 ft | 210 kts | 345° |
| 2026-02-17 13:33 | 45.20064 | 8.84593 | 4431 ft | 210 kts | 345° |
| 2026-02-17 13:33 | 45.21501 | 8.84203 | 4394 ft | 210 kts | 345° |
| 2026-02-17 13:33 | 45.22933 | 8.83815 | 4340 ft | 210 kts | 346° |
| 2026-02-17 13:33 | 45.24367 | 8.83424 | 4254 ft | 210 kts | 345° |
| 2026-02-17 13:34 | 45.25736 | 8.82833 | 4198 ft | 207 kts | 335° |
| 2026-02-17 13:34 | 45.27117 | 8.82208 | 4148 ft | 209 kts | 342° |
| 2026-02-17 13:34 | 45.28545 | 8.81763 | 4096 ft | 210 kts | 345° |
| 2026-02-17 13:35 | 45.31418 | 8.80973 | 3991 ft | 210 kts | 345° |
| 2026-02-17 13:35 | 45.32851 | 8.80582 | 3939 ft | 210 kts | 345° |
| 2026-02-17 13:35 | 45.34293 | 8.80188 | 3887 ft | 210 kts | 346° |
| 2026-02-17 13:35 | 45.35727 | 8.79796 | 3836 ft | 210 kts | 346° |
| 2026-02-17 13:36 | 45.37161 | 8.79403 | 3794 ft | 210 kts | 345° |
| 2026-02-17 13:36 | 45.38599 | 8.79010 | 3735 ft | 210 kts | 346° |
| 2026-02-17 13:36 | 45.40038 | 8.78616 | 3645 ft | 210 kts | 346° |
| 2026-02-17 13:36 | 45.41468 | 8.78224 | 3548 ft | 210 kts | 346° |
| 2026-02-17 13:37 | 45.42891 | 8.77835 | 3444 ft | 204 kts | 346° |
| 2026-02-17 13:37 | 45.44235 | 8.77467 | 3434 ft | 195 kts | 348° |
| 2026-02-17 13:37 | 45.45559 | 8.77103 | 3333 ft | 191 kts | 348° |
| 2026-02-17 13:37 | 45.46862 | 8.76745 | 3234 ft | 190 kts | 348° |
| 2026-02-17 13:38 | 45.48160 | 8.76388 | 3139 ft | 190 kts | 348° |
| 2026-02-17 13:38 | 45.49453 | 8.76033 | 3076 ft | 190 kts | 349° |
| 2026-02-17 13:38 | 45.50755 | 8.75675 | 2888 ft | 190 kts | 349° |
| 2026-02-17 13:39 | 45.53317 | 8.74970 | 2431 ft | 181 kts | 349° |
| 2026-02-17 13:39 | 45.54518 | 8.74639 | 2154 ft | 170 kts | 349° |
| 2026-02-17 13:39 | 45.55263 | 8.74434 | 2031 ft | 158 kts | 349° |
| 2026-02-17 13:39 | 45.56291 | 8.74151 | 1803 ft | 144 kts | 349° |
| 2026-02-17 13:40 | 45.57253 | 8.73886 | 1606 ft | 138 kts | 349° |
| 2026-02-17 13:40 | 45.58184 | 8.73629 | 1421 ft | 135 kts | 348° |
| 2026-02-17 13:40 | 45.59108 | 8.73375 | 1225 ft | 135 kts | 348° |
| 2026-02-17 13:40 | 45.60024 | 8.73122 | 1034 ft | 135 kts | 348° |
| 2026-02-17 13:41 | 45.60939 | 8.72865 | 849 ft | 133 kts | 348° |
| 2026-02-17 13:41 | 45.61837 | 8.72615 | 753 ft | 124 kts | 348° |
| 2026-02-17 13:41 | 45.62550 | 8.72426 | 743 ft | 81 kts | 349° |
| 2026-02-17 13:41 | 45.62958 | 8.72314 | 749 ft | 32 kts | 349° |
| 2026-02-17 13:42 | 45.63138 | 8.72183 | 750 ft | 26 kts | 320° |
| 2026-02-17 13:42 | 45.63227 | 8.72075 | 748 ft | 10 kts | 319° |
| 2026-02-17 13:42 | 45.63277 | 8.72005 | 751 ft | 10 kts | 313° |
| 2026-02-17 13:43 | 45.63297 | 8.71832 | 751 ft | 9 kts | 259° |
| 2026-02-17 13:43 | 45.63286 | 8.71746 | 751 ft | 9 kts | 259° |
| 2026-02-17 13:43 | 45.63260 | 8.71676 | 752 ft | 11 kts | 206° |
| 2026-02-17 13:43 | 45.63167 | 8.71686 | 751 ft | 13 kts | 168° |
| 2026-02-17 13:44 | 45.63078 | 8.71712 | 748 ft | 17 kts | 169° |
| 2026-02-17 13:44 | 45.62960 | 8.71744 | 752 ft | 14 kts | 169° |
| 2026-02-17 13:44 | 45.62883 | 8.71764 | 750 ft | 14 kts | 169° |
| 2026-02-17 13:44 | 45.62791 | 8.71789 | 749 ft | 13 kts | 169° |
| 2026-02-17 13:45 | 45.62703 | 8.71814 | 753 ft | 12 kts | 169° |
| 2026-02-17 13:45 | 45.62644 | 8.71770 | 752 ft | 9 kts | 251° |
| 2026-02-17 13:45 | 45.62682 | 8.71719 | 752 ft | 7 kts | 338° |
| 2026-02-17 13:45 | 45.62716 | 8.71696 | 750 ft | 4 kts | 330° |
| 2026-02-17 13:46 | 45.62729 | 8.71686 | 749 ft | 0 kts | 330° |